sensor_id;sensor_type;location;lat;lon;timestamp;P1;durP1;ratioP1;P2;durP2;ratioP2
12869;SDS011;6503;48.572;13.460;2023-07-13T00:00:40;9.73;;;6.22;;
12869;SDS011;6503;48.572;13.460;2023-07-13T00:03:08;9.93;;;6.80;;
12869;SDS011;6503;48.572;13.460;2023-07-13T00:05:38;13.52;;;7.10;;
12869;SDS011;6503;48.572;13.460;2023-07-13T00:08:06;9.30;;;6.80;;
12869;SDS011;6503;48.572;13.460;2023-07-13T00:10:38;10.27;;;8.10;;
12869;SDS011;6503;48.572;13.460;2023-07-13T00:13:09;9.27;;;7.32;;
12869;SDS011;6503;48.572;13.460;2023-07-13T00:15:37;10.57;;;8.00;;
12869;SDS011;6503;48.572;13.460;2023-07-13T00:18:04;11.75;;;7.95;;
12869;SDS011;6503;48.572;13.460;2023-07-13T00:20:32;11.57;;;8.60;;
12869;SDS011;6503;48.572;13.460;2023-07-13T00:22:59;9.38;;;8.35;;
12869;SDS011;6503;48.572;13.460;2023-07-13T00:25:29;10.93;;;8.55;;
12869;SDS011;6503;48.572;13.460;2023-07-13T00:27:57;9.80;;;8.75;;
12869;SDS011;6503;48.572;13.460;2023-07-13T00:30:26;15.27;;;9.20;;
12869;SDS011;6503;48.572;13.460;2023-07-13T00:32:55;10.80;;;8.68;;
12869;SDS011;6503;48.572;13.460;2023-07-13T00:35:22;11.95;;;8.77;;
12869;SDS011;6503;48.572;13.460;2023-07-13T00:37:50;12.35;;;8.18;;
12869;SDS011;6503;48.572;13.460;2023-07-13T00:40:18;12.93;;;8.30;;
12869;SDS011;6503;48.572;13.460;2023-07-13T00:42:51;10.25;;;7.70;;
12869;SDS011;6503;48.572;13.460;2023-07-13T00:48:07;12.15;;;7.60;;
12869;SDS011;6503;48.572;13.460;2023-07-13T00:50:35;11.35;;;7.15;;
12869;SDS011;6503;48.572;13.460;2023-07-13T00:55:34;9.95;;;8.15;;
12869;SDS011;6503;48.572;13.460;2023-07-13T00:58:02;14.07;;;8.27;;
12869;SDS011;6503;48.572;13.460;2023-07-13T01:00:32;13.93;;;9.30;;
12869;SDS011;6503;48.572;13.460;2023-07-13T01:03:00;13.20;;;9.20;;
12869;SDS011;6503;48.572;13.460;2023-07-13T01:18:58;11.30;;;8.50;;
12869;SDS011;6503;48.572;13.460;2023-07-13T01:21:49;10.90;;;8.65;;
12869;SDS011;6503;48.572;13.460;2023-07-13T01:24:16;13.13;;;9.00;;
12869;SDS011;6503;48.572;13.460;2023-07-13T01:26:44;13.07;;;7.75;;
12869;SDS011;6503;48.572;13.460;2023-07-13T01:29:11;10.45;;;7.95;;
12869;SDS011;6503;48.572;13.460;2023-07-13T01:34:19;11.38;;;7.57;;
12869;SDS011;6503;48.572;13.460;2023-07-13T01:39:25;11.63;;;8.00;;
12869;SDS011;6503;48.572;13.460;2023-07-13T01:41:52;10.65;;;7.43;;
12869;SDS011;6503;48.572;13.460;2023-07-13T01:44:30;11.98;;;7.57;;
12869;SDS011;6503;48.572;13.460;2023-07-13T01:49:38;10.30;;;7.25;;
12869;SDS011;6503;48.572;13.460;2023-07-13T01:52:06;13.07;;;7.73;;
12869;SDS011;6503;48.572;13.460;2023-07-13T01:54:35;9.48;;;6.70;;
12869;SDS011;6503;48.572;13.460;2023-07-13T01:57:03;10.80;;;7.28;;
12869;SDS011;6503;48.572;13.460;2023-07-13T02:41:04;8.10;;;5.85;;
12869;SDS011;6503;48.572;13.460;2023-07-13T03:17:40;6.35;;;4.65;;
12869;SDS011;6503;48.572;13.460;2023-07-13T03:25:19;7.60;;;4.40;;
12869;SDS011;6503;48.572;13.460;2023-07-13T03:30:23;6.88;;;5.10;;
12869;SDS011;6503;48.572;13.460;2023-07-13T03:40:45;7.57;;;5.22;;
12869;SDS011;6503;48.572;13.460;2023-07-13T03:45:47;7.32;;;5.15;;
12869;SDS011;6503;48.572;13.460;2023-07-13T03:50:50;7.40;;;5.30;;
12869;SDS011;6503;48.572;13.460;2023-07-13T04:01:08;8.52;;;5.70;;
12869;SDS011;6503;48.572;13.460;2023-07-13T04:03:36;8.23;;;4.88;;
12869;SDS011;6503;48.572;13.460;2023-07-13T04:08:39;6.38;;;4.57;;
12869;SDS011;6503;48.572;13.460;2023-07-13T04:11:30;6.32;;;5.38;;
12869;SDS011;6503;48.572;13.460;2023-07-13T04:21:55;6.53;;;4.55;;
12869;SDS011;6503;48.572;13.460;2023-07-13T04:24:25;6.20;;;4.75;;
12869;SDS011;6503;48.572;13.460;2023-07-13T04:26:53;5.97;;;4.40;;
12869;SDS011;6503;48.572;13.460;2023-07-13T04:29:21;7.03;;;4.50;;
12869;SDS011;6503;48.572;13.460;2023-07-13T04:42:14;4.90;;;4.25;;
12869;SDS011;6503;48.572;13.460;2023-07-13T04:55:05;9.90;;;4.10;;
12869;SDS011;6503;48.572;13.460;2023-07-13T04:57:38;6.15;;;3.72;;
12869;SDS011;6503;48.572;13.460;2023-07-13T05:00:06;6.28;;;3.67;;
12869;SDS011;6503;48.572;13.460;2023-07-13T05:08:33;5.88;;;3.50;;
12869;SDS011;6503;48.572;13.460;2023-07-13T05:24:34;5.45;;;3.33;;
12869;SDS011;6503;48.572;13.460;2023-07-13T05:35:24;5.43;;;2.65;;
12869;SDS011;6503;48.572;13.460;2023-07-13T05:38:14;5.13;;;3.00;;
12869;SDS011;6503;48.572;13.460;2023-07-13T05:41:23;6.78;;;4.18;;
12869;SDS011;6503;48.572;13.460;2023-07-13T05:50:11;4.50;;;3.25;;
12869;SDS011;6503;48.572;13.460;2023-07-13T06:03:43;6.40;;;3.40;;
12869;SDS011;6503;48.572;13.460;2023-07-13T06:11:35;6.47;;;2.90;;
12869;SDS011;6503;48.572;13.460;2023-07-13T06:14:02;6.43;;;3.27;;
12869;SDS011;6503;48.572;13.460;2023-07-13T06:16:36;5.93;;;3.72;;
12869;SDS011;6503;48.572;13.460;2023-07-13T06:19:19;8.10;;;3.45;;
12869;SDS011;6503;48.572;13.460;2023-07-13T06:24:24;7.47;;;4.03;;
12869;SDS011;6503;48.572;13.460;2023-07-13T06:26:57;4.57;;;3.08;;
12869;SDS011;6503;48.572;13.460;2023-07-13T06:29:44;7.07;;;3.58;;
12869;SDS011;6503;48.572;13.460;2023-07-13T06:35:36;6.03;;;3.70;;
12869;SDS011;6503;48.572;13.460;2023-07-13T06:38:18;8.57;;;3.63;;
12869;SDS011;6503;48.572;13.460;2023-07-13T06:47:17;8.77;;;4.10;;
12869;SDS011;6503;48.572;13.460;2023-07-13T06:51:32;7.00;;;5.43;;
12869;SDS011;6503;48.572;13.460;2023-07-13T06:59:24;5.38;;;4.03;;
12869;SDS011;6503;48.572;13.460;2023-07-13T07:01:56;9.35;;;4.38;;
12869;SDS011;6503;48.572;13.460;2023-07-13T07:04:39;6.88;;;4.80;;
12869;SDS011;6503;48.572;13.460;2023-07-13T07:07:18;11.82;;;5.53;;
12869;SDS011;6503;48.572;13.460;2023-07-13T07:09:46;6.95;;;4.70;;
12869;SDS011;6503;48.572;13.460;2023-07-13T07:12:36;8.00;;;4.78;;
12869;SDS011;6503;48.572;13.460;2023-07-13T07:18:18;7.20;;;4.82;;
12869;SDS011;6503;48.572;13.460;2023-07-13T07:20:46;8.48;;;4.85;;
12869;SDS011;6503;48.572;13.460;2023-07-13T07:26:29;5.97;;;4.25;;
12869;SDS011;6503;48.572;13.460;2023-07-13T07:29:17;8.50;;;4.70;;
12869;SDS011;6503;48.572;13.460;2023-07-13T07:32:12;8.30;;;4.65;;
12869;SDS011;6503;48.572;13.460;2023-07-13T07:34:41;5.90;;;4.00;;
12869;SDS011;6503;48.572;13.460;2023-07-13T07:37:21;9.45;;;4.40;;
12869;SDS011;6503;48.572;13.460;2023-07-13T07:43:24;7.05;;;4.65;;
12869;SDS011;6503;48.572;13.460;2023-07-13T07:49:06;12.93;;;4.28;;
12869;SDS011;6503;48.572;13.460;2023-07-13T07:51:49;6.03;;;3.53;;
12869;SDS011;6503;48.572;13.460;2023-07-13T07:54:23;5.50;;;3.38;;
12869;SDS011;6503;48.572;13.460;2023-07-13T07:59:47;9.63;;;3.67;;
12869;SDS011;6503;48.572;13.460;2023-07-13T08:02:15;5.88;;;3.85;;
12869;SDS011;6503;48.572;13.460;2023-07-13T08:04:49;8.10;;;3.42;;
12869;SDS011;6503;48.572;13.460;2023-07-13T08:07:28;5.53;;;3.83;;
12869;SDS011;6503;48.572;13.460;2023-07-13T08:10:48;5.93;;;3.70;;
12869;SDS011;6503;48.572;13.460;2023-07-13T08:13:53;8.15;;;3.88;;
12869;SDS011;6503;48.572;13.460;2023-07-13T08:16:23;7.65;;;3.60;;
12869;SDS011;6503;48.572;13.460;2023-07-13T08:22:36;5.40;;;3.47;;
12869;SDS011;6503;48.572;13.460;2023-07-13T08:25:09;7.43;;;3.40;;
12869;SDS011;6503;48.572;13.460;2023-07-13T08:28:03;5.35;;;3.10;;
12869;SDS011;6503;48.572;13.460;2023-07-13T08:44:27;6.90;;;3.15;;
12869;SDS011;6503;48.572;13.460;2023-07-13T08:46:58;7.47;;;3.25;;
12869;SDS011;6503;48.572;13.460;2023-07-13T08:49:26;5.82;;;2.83;;
12869;SDS011;6503;48.572;13.460;2023-07-13T08:51:55;6.10;;;3.17;;
12869;SDS011;6503;48.572;13.460;2023-07-13T08:54:30;4.95;;;3.38;;
12869;SDS011;6503;48.572;13.460;2023-07-13T09:00:16;5.63;;;2.85;;
12869;SDS011;6503;48.572;13.460;2023-07-13T09:02:48;6.80;;;3.20;;
12869;SDS011;6503;48.572;13.460;2023-07-13T09:05:27;4.57;;;3.22;;
12869;SDS011;6503;48.572;13.460;2023-07-13T09:08:01;5.33;;;2.80;;
12869;SDS011;6503;48.572;13.460;2023-07-13T09:10:35;5.57;;;3.42;;
12869;SDS011;6503;48.572;13.460;2023-07-13T09:13:27;7.10;;;2.90;;
12869;SDS011;6503;48.572;13.460;2023-07-13T09:16:02;6.28;;;2.67;;
12869;SDS011;6503;48.572;13.460;2023-07-13T09:18:45;4.88;;;2.97;;
12869;SDS011;6503;48.572;13.460;2023-07-13T09:27:26;4.68;;;2.90;;
12869;SDS011;6503;48.572;13.460;2023-07-13T09:30:17;4.97;;;2.55;;
12869;SDS011;6503;48.572;13.460;2023-07-13T09:35:56;5.20;;;2.67;;
12869;SDS011;6503;48.572;13.460;2023-07-13T09:38:41;3.80;;;2.53;;
12869;SDS011;6503;48.572;13.460;2023-07-13T09:41:33;4.97;;;2.67;;
12869;SDS011;6503;48.572;13.460;2023-07-13T09:44:29;6.32;;;2.85;;
12869;SDS011;6503;48.572;13.460;2023-07-13T09:46:58;6.07;;;3.23;;
12869;SDS011;6503;48.572;13.460;2023-07-13T09:55:30;4.60;;;2.83;;
12869;SDS011;6503;48.572;13.460;2023-07-13T09:58:19;5.82;;;3.00;;
12869;SDS011;6503;48.572;13.460;2023-07-13T10:01:09;6.05;;;2.33;;
12869;SDS011;6503;48.572;13.460;2023-07-13T10:06:12;4.80;;;2.55;;
12869;SDS011;6503;48.572;13.460;2023-07-13T10:07:06;5.30;;;2.40;;
12869;SDS011;6503;48.572;13.460;2023-07-13T10:10:16;3.05;;;2.28;;
12869;SDS011;6503;48.572;13.460;2023-07-13T10:21:46;5.30;;;2.30;;
12869;SDS011;6503;48.572;13.460;2023-07-13T10:24:37;4.03;;;1.77;;
12869;SDS011;6503;48.572;13.460;2023-07-13T10:27:29;6.68;;;2.08;;
12869;SDS011;6503;48.572;13.460;2023-07-13T10:30:17;7.07;;;2.78;;
12869;SDS011;6503;48.572;13.460;2023-07-13T10:33:23;3.25;;;2.17;;
12869;SDS011;6503;48.572;13.460;2023-07-13T10:36:17;5.32;;;1.95;;
12869;SDS011;6503;48.572;13.460;2023-07-13T10:39:27;4.97;;;3.13;;
12869;SDS011;6503;48.572;13.460;2023-07-13T10:43:39;4.05;;;1.95;;
12869;SDS011;6503;48.572;13.460;2023-07-13T10:45:23;6.60;;;2.13;;
12869;SDS011;6503;48.572;13.460;2023-07-13T10:48:06;7.47;;;2.30;;
12869;SDS011;6503;48.572;13.460;2023-07-13T11:06:13;3.38;;;2.30;;
12869;SDS011;6503;48.572;13.460;2023-07-13T11:08:52;4.10;;;2.17;;
12869;SDS011;6503;48.572;13.460;2023-07-13T11:11:39;3.90;;;2.00;;
12869;SDS011;6503;48.572;13.460;2023-07-13T11:20:42;4.05;;;2.00;;
12869;SDS011;6503;48.572;13.460;2023-07-13T11:23:38;3.25;;;1.88;;
12869;SDS011;6503;48.572;13.460;2023-07-13T11:29:25;2.58;;;1.80;;
12869;SDS011;6503;48.572;13.460;2023-07-13T11:33:01;2.80;;;1.88;;
12869;SDS011;6503;48.572;13.460;2023-07-13T11:35:23;2.85;;;1.38;;
12869;SDS011;6503;48.572;13.460;2023-07-13T11:38:13;4.70;;;1.58;;
12869;SDS011;6503;48.572;13.460;2023-07-13T12:04:32;3.08;;;1.45;;
12869;SDS011;6503;48.572;13.460;2023-07-13T12:08:00;4.20;;;1.67;;
12869;SDS011;6503;48.572;13.460;2023-07-13T12:10:31;5.80;;;1.73;;
12869;SDS011;6503;48.572;13.460;2023-07-13T12:13:19;4.53;;;1.60;;
12869;SDS011;6503;48.572;13.460;2023-07-13T12:16:20;3.50;;;1.60;;
12869;SDS011;6503;48.572;13.460;2023-07-13T12:22:17;3.60;;;1.88;;
12869;SDS011;6503;48.572;13.460;2023-07-13T12:25:11;3.92;;;1.70;;
12869;SDS011;6503;48.572;13.460;2023-07-13T12:37:02;3.60;;;1.55;;
12869;SDS011;6503;48.572;13.460;2023-07-13T12:40:18;3.53;;;1.50;;
12869;SDS011;6503;48.572;13.460;2023-07-13T12:43:09;2.85;;;1.45;;
12869;SDS011;6503;48.572;13.460;2023-07-13T12:49:08;4.60;;;1.65;;
12869;SDS011;6503;48.572;13.460;2023-07-13T12:54:51;3.33;;;1.50;;
12869;SDS011;6503;48.572;13.460;2023-07-13T12:57:57;5.03;;;1.40;;
12869;SDS011;6503;48.572;13.460;2023-07-13T13:00:54;4.78;;;1.55;;
12869;SDS011;6503;48.572;13.460;2023-07-13T13:10:57;3.88;;;1.85;;
12869;SDS011;6503;48.572;13.460;2023-07-13T13:22:22;2.83;;;1.35;;
12869;SDS011;6503;48.572;13.460;2023-07-13T13:25:12;2.97;;;1.55;;
12869;SDS011;6503;48.572;13.460;2023-07-13T13:46:13;3.45;;;1.60;;
12869;SDS011;6503;48.572;13.460;2023-07-13T13:52:08;2.90;;;1.38;;
12869;SDS011;6503;48.572;13.460;2023-07-13T13:54:50;3.42;;;1.30;;
12869;SDS011;6503;48.572;13.460;2023-07-13T14:42:14;2.85;;;1.80;;
12869;SDS011;6503;48.572;13.460;2023-07-13T14:44:43;7.07;;;1.70;;
12869;SDS011;6503;48.572;13.460;2023-07-13T14:47:25;2.97;;;1.65;;
12869;SDS011;6503;48.572;13.460;2023-07-13T14:49:58;2.85;;;1.60;;
12869;SDS011;6503;48.572;13.460;2023-07-13T14:52:29;5.78;;;1.85;;
12869;SDS011;6503;48.572;13.460;2023-07-13T14:55:00;2.80;;;1.45;;
12869;SDS011;6503;48.572;13.460;2023-07-13T14:57:50;12.00;;;1.92;;
12869;SDS011;6503;48.572;13.460;2023-07-13T15:01:28;5.03;;;1.55;;
12869;SDS011;6503;48.572;13.460;2023-07-13T15:03:55;4.00;;;3.00;;
12869;SDS011;6503;48.572;13.460;2023-07-13T15:09:21;3.75;;;2.13;;
12869;SDS011;6503;48.572;13.460;2023-07-13T15:17:49;5.72;;;1.40;;
12869;SDS011;6503;48.572;13.460;2023-07-13T15:45:58;6.15;;;1.52;;
12869;SDS011;6503;48.572;13.460;2023-07-13T15:54:21;3.53;;;1.50;;
12869;SDS011;6503;48.572;13.460;2023-07-13T16:16:04;3.53;;;1.40;;
12869;SDS011;6503;48.572;13.460;2023-07-13T16:22:08;3.20;;;1.30;;
12869;SDS011;6503;48.572;13.460;2023-07-13T16:27:58;2.92;;;1.85;;
12869;SDS011;6503;48.572;13.460;2023-07-13T16:30:42;6.28;;;1.92;;
12869;SDS011;6503;48.572;13.460;2023-07-13T16:36:35;2.70;;;1.50;;
12869;SDS011;6503;48.572;13.460;2023-07-13T16:39:22;5.03;;;1.83;;
12869;SDS011;6503;48.572;13.460;2023-07-13T16:42:02;4.05;;;1.65;;
12869;SDS011;6503;48.572;13.460;2023-07-13T16:44:48;3.75;;;1.40;;
12869;SDS011;6503;48.572;13.460;2023-07-13T16:47:30;3.22;;;1.42;;
12869;SDS011;6503;48.572;13.460;2023-07-13T16:50:31;4.15;;;1.70;;
12869;SDS011;6503;48.572;13.460;2023-07-13T16:59:01;3.23;;;1.40;;
12869;SDS011;6503;48.572;13.460;2023-07-13T17:01:34;2.65;;;1.20;;
12869;SDS011;6503;48.572;13.460;2023-07-13T17:04:52;1.92;;;1.23;;
12869;SDS011;6503;48.572;13.460;2023-07-13T17:12:59;4.50;;;1.80;;
12869;SDS011;6503;48.572;13.460;2023-07-13T17:15:48;2.90;;;1.70;;
12869;SDS011;6503;48.572;13.460;2023-07-13T17:18:24;2.70;;;1.20;;
12869;SDS011;6503;48.572;13.460;2023-07-13T17:20:52;5.45;;;1.63;;
12869;SDS011;6503;48.572;13.460;2023-07-13T17:23:26;3.47;;;1.50;;
12869;SDS011;6503;48.572;13.460;2023-07-13T17:26:07;3.63;;;1.80;;
12869;SDS011;6503;48.572;13.460;2023-07-13T17:28:37;3.13;;;1.40;;
12869;SDS011;6503;48.572;13.460;2023-07-13T17:37:00;3.88;;;1.63;;
12869;SDS011;6503;48.572;13.460;2023-07-13T17:39:44;5.47;;;1.40;;
12869;SDS011;6503;48.572;13.460;2023-07-13T17:42:25;1.77;;;1.25;;
12869;SDS011;6503;48.572;13.460;2023-07-13T17:45:05;3.17;;;1.75;;
12869;SDS011;6503;48.572;13.460;2023-07-13T17:47:32;2.55;;;1.08;;
12869;SDS011;6503;48.572;13.460;2023-07-13T17:50:01;1.88;;;1.25;;
12869;SDS011;6503;48.572;13.460;2023-07-13T17:52:51;2.88;;;1.40;;
12869;SDS011;6503;48.572;13.460;2023-07-13T17:55:37;2.47;;;1.33;;
12869;SDS011;6503;48.572;13.460;2023-07-13T17:58:24;2.92;;;1.40;;
12869;SDS011;6503;48.572;13.460;2023-07-13T18:01:13;2.38;;;1.42;;
12869;SDS011;6503;48.572;13.460;2023-07-13T18:03:55;1.70;;;1.13;;
12869;SDS011;6503;48.572;13.460;2023-07-13T18:06:47;3.95;;;1.60;;
12869;SDS011;6503;48.572;13.460;2023-07-13T18:09:23;3.42;;;1.50;;
12869;SDS011;6503;48.572;13.460;2023-07-13T18:12:01;5.55;;;1.75;;
12869;SDS011;6503;48.572;13.460;2023-07-13T18:14:38;3.70;;;1.60;;
12869;SDS011;6503;48.572;13.460;2023-07-13T18:18:02;2.38;;;1.50;;
12869;SDS011;6503;48.572;13.460;2023-07-13T18:22:57;3.35;;;1.60;;
12869;SDS011;6503;48.572;13.460;2023-07-13T18:28:25;2.25;;;1.50;;
12869;SDS011;6503;48.572;13.460;2023-07-13T18:31:08;3.65;;;1.70;;
12869;SDS011;6503;48.572;13.460;2023-07-13T18:33:40;2.42;;;1.27;;
12869;SDS011;6503;48.572;13.460;2023-07-13T18:39:14;2.38;;;1.30;;
12869;SDS011;6503;48.572;13.460;2023-07-13T18:41:58;3.67;;;1.38;;
12869;SDS011;6503;48.572;13.460;2023-07-13T18:44:30;2.40;;;1.50;;
12869;SDS011;6503;48.572;13.460;2023-07-13T18:47:04;5.50;;;1.55;;
12869;SDS011;6503;48.572;13.460;2023-07-13T18:49:40;4.88;;;1.67;;
12869;SDS011;6503;48.572;13.460;2023-07-13T18:52:21;2.85;;;1.55;;
12869;SDS011;6503;48.572;13.460;2023-07-13T18:58:09;2.38;;;1.40;;
12869;SDS011;6503;48.572;13.460;2023-07-13T19:03:49;3.30;;;2.00;;
12869;SDS011;6503;48.572;13.460;2023-07-13T19:06:35;3.42;;;2.17;;
12869;SDS011;6503;48.572;13.460;2023-07-13T19:09:19;3.70;;;1.95;;
12869;SDS011;6503;48.572;13.460;2023-07-13T19:11:52;5.68;;;4.30;;
12869;SDS011;6503;48.572;13.460;2023-07-13T19:14:36;3.42;;;1.70;;
12869;SDS011;6503;48.572;13.460;2023-07-13T19:17:26;3.00;;;1.60;;
12869;SDS011;6503;48.572;13.460;2023-07-13T19:25:59;3.45;;;1.70;;
12869;SDS011;6503;48.572;13.460;2023-07-13T19:28:30;3.75;;;1.67;;
12869;SDS011;6503;48.572;13.460;2023-07-13T19:33:25;3.72;;;1.80;;
12869;SDS011;6503;48.572;13.460;2023-07-13T19:35:54;3.67;;;1.70;;
12869;SDS011;6503;48.572;13.460;2023-07-13T19:41:20;4.82;;;2.05;;
12869;SDS011;6503;48.572;13.460;2023-07-13T19:43:48;3.70;;;2.22;;
12869;SDS011;6503;48.572;13.460;2023-07-13T19:46:29;4.57;;;2.30;;
12869;SDS011;6503;48.572;13.460;2023-07-13T19:49:07;3.05;;;2.10;;
12869;SDS011;6503;48.572;13.460;2023-07-13T19:51:36;4.97;;;2.00;;
12869;SDS011;6503;48.572;13.460;2023-07-13T19:54:09;4.68;;;2.00;;
12869;SDS011;6503;48.572;13.460;2023-07-13T19:59:44;4.32;;;2.42;;
12869;SDS011;6503;48.572;13.460;2023-07-13T20:02:16;3.47;;;2.03;;
12869;SDS011;6503;48.572;13.460;2023-07-13T20:04:44;5.85;;;2.45;;
12869;SDS011;6503;48.572;13.460;2023-07-13T20:07:13;3.88;;;2.17;;
12869;SDS011;6503;48.572;13.460;2023-07-13T20:09:42;7.35;;;2.42;;
12869;SDS011;6503;48.572;13.460;2023-07-13T20:12:13;3.20;;;1.88;;
12869;SDS011;6503;48.572;13.460;2023-07-13T20:14:47;5.32;;;2.28;;
12869;SDS011;6503;48.572;13.460;2023-07-13T20:17:20;4.30;;;2.08;;
12869;SDS011;6503;48.572;13.460;2023-07-13T20:19:48;4.93;;;2.03;;
12869;SDS011;6503;48.572;13.460;2023-07-13T20:22:17;6.95;;;2.15;;
12869;SDS011;6503;48.572;13.460;2023-07-13T20:24:44;3.95;;;1.90;;
12869;SDS011;6503;48.572;13.460;2023-07-13T20:27:12;5.30;;;2.38;;
12869;SDS011;6503;48.572;13.460;2023-07-13T20:32:11;6.25;;;2.03;;
12869;SDS011;6503;48.572;13.460;2023-07-13T20:34:39;3.65;;;2.10;;
12869;SDS011;6503;48.572;13.460;2023-07-13T20:37:17;3.92;;;2.53;;
12869;SDS011;6503;48.572;13.460;2023-07-13T20:39:47;4.32;;;2.50;;
12869;SDS011;6503;48.572;13.460;2023-07-13T20:42:15;4.30;;;2.55;;
12869;SDS011;6503;48.572;13.460;2023-07-13T20:44:43;4.65;;;2.30;;
12869;SDS011;6503;48.572;13.460;2023-07-13T20:47:13;4.40;;;2.20;;
12869;SDS011;6503;48.572;13.460;2023-07-13T20:49:41;7.90;;;2.50;;
12869;SDS011;6503;48.572;13.460;2023-07-13T20:52:09;3.65;;;2.40;;
12869;SDS011;6503;48.572;13.460;2023-07-13T20:54:38;3.50;;;2.40;;
12869;SDS011;6503;48.572;13.460;2023-07-13T20:57:09;5.88;;;3.05;;
12869;SDS011;6503;48.572;13.460;2023-07-13T20:59:36;6.85;;;2.53;;
12869;SDS011;6503;48.572;13.460;2023-07-13T21:02:09;5.53;;;2.83;;
12869;SDS011;6503;48.572;13.460;2023-07-13T21:04:41;4.72;;;2.13;;
12869;SDS011;6503;48.572;13.460;2023-07-13T21:07:10;5.32;;;2.60;;
12869;SDS011;6503;48.572;13.460;2023-07-13T21:09:43;5.30;;;2.70;;
12869;SDS011;6503;48.572;13.460;2023-07-13T21:12:10;4.55;;;2.47;;
12869;SDS011;6503;48.572;13.460;2023-07-13T21:14:38;5.20;;;2.70;;
12869;SDS011;6503;48.572;13.460;2023-07-13T21:17:08;6.97;;;3.45;;
12869;SDS011;6503;48.572;13.460;2023-07-13T21:19:36;5.15;;;2.90;;
12869;SDS011;6503;48.572;13.460;2023-07-13T21:22:08;4.20;;;3.10;;
12869;SDS011;6503;48.572;13.460;2023-07-13T21:24:37;7.03;;;2.85;;
